Time;durP1;ratioP1;P1;durP2;ratioP2;P2;SDS_P1;SDS_P2;PMS_P1;PMS_P2;Temp;Humidity;BMP_temperature;BMP_pressure;BME280_temperature;BME280_humidity;BME280_pressure;Samples;Min_cycle;Max_cycle;Signal;HPM_P1;HPM_P2
2023/03/15 00:00:56;;;;;;;7.88;1.90;;;;;;;1.37;100.00;100196.09;5053849;28;20505;-82
2023/03/15 00:03:25;;;;;;;11.40;2.42;;;;;;;1.29;100.00;100211.66;5030656;28;20380;-84
2023/03/15 00:05:52;;;;;;;8.07;2.17;;;;;;;1.52;100.00;100255.31;5049744;28;20431;-83
2023/03/15 00:08:23;;;;;;;9.73;2.05;;;;;;;1.28;100.00;100229.72;5036850;28;20049;-83
2023/03/15 00:10:49;;;;;;;8.57;1.98;;;;;;;1.13;100.00;100210.03;5051652;28;20072;-85
2023/03/15 00:13:17;;;;;;;10.90;3.08;;;;;;;1.29;100.00;100242.59;5033415;28;20049;-85
2023/03/15 00:15:47;;;;;;;12.88;2.63;;;;;;;1.54;100.00;100275.09;5048749;28;20057;-85
2023/03/15 00:18:14;;;;;;;10.18;1.92;;;;;;;1.16;100.00;100238.41;5044165;28;20098;-85
2023/03/15 00:20:41;;;;;;;9.77;2.75;;;;;;;1.19;100.00;100250.41;5050945;28;20156;-85
2023/03/15 00:23:08;;;;;;;5.72;2.85;;;;;;;1.28;100.00;100281.31;5034048;28;20053;-85
2023/03/15 00:25:35;;;;;;;8.05;1.95;;;;;;;1.18;100.00;100266.75;5033758;28;20056;-85
2023/03/15 00:28:02;;;;;;;7.20;2.15;;;;;;;0.95;100.00;100271.16;5030112;28;20088;-85
2023/03/15 00:30:29;;;;;;;9.98;2.05;;;;;;;0.92;100.00;100247.13;5029689;28;20060;-83
2023/03/15 00:32:55;;;;;;;7.32;2.33;;;;;;;1.00;100.00;100270.31;5031019;28;20407;-84
2023/03/15 00:35:23;;;;;;;11.02;2.20;;;;;;;0.98;100.00;100254.84;5028175;28;20122;-83
2023/03/15 00:37:55;;;;;;;8.18;2.00;;;;;;;1.07;100.00;100285.72;5035057;28;20059;-83
2023/03/15 00:40:23;;;;;;;7.53;2.22;;;;;;;1.06;100.00;100283.16;5036642;28;20063;-83
2023/03/15 00:42:50;;;;;;;7.10;2.10;;;;;;;1.00;100.00;100289.19;5019074;28;20064;-84
2023/03/15 00:45:18;;;;;;;9.20;1.63;;;;;;;1.07;100.00;100287.44;5043366;28;20741;-84
2023/03/15 00:47:49;;;;;;;13.10;3.05;;;;;;;0.87;100.00;100264.38;5034044;28;20646;-84
2023/03/15 00:50:17;;;;;;;9.38;1.83;;;;;;;1.13;100.00;100287.41;5024817;28;20124;-84
2023/03/15 00:52:44;;;;;;;13.73;2.20;;;;;;;1.00;100.00;100260.00;5034529;28;20064;-83
2023/03/15 00:55:13;;;;;;;9.32;2.53;;;;;;;1.19;100.00;100297.69;5022008;28;20055;-83
2023/03/15 00:57:42;;;;;;;9.68;2.35;;;;;;;1.21;100.00;100289.94;5022892;28;20076;-84
2023/03/15 01:00:13;;;;;;;8.90;2.22;;;;;;;1.35;100.00;100306.19;5053540;28;20044;-84
2023/03/15 01:02:40;;;;;;;16.75;5.47;;;;;;;0.98;100.00;100265.16;5029266;28;20059;-83
2023/03/15 01:05:08;;;;;;;12.10;2.15;;;;;;;1.47;100.00;100308.69;5021757;28;20041;-84
2023/03/15 01:07:35;;;;;;;8.50;2.55;;;;;;;1.27;100.00;100280.44;5048001;28;20095;-84
2023/03/15 01:10:04;;;;;;;9.63;2.03;;;;;;;1.45;100.00;100319.88;5050347;28;20549;-84
2023/03/15 01:12:32;;;;;;;11.23;2.25;;;;;;;1.39;100.00;100323.34;5029236;28;20049;-84
2023/03/15 01:15:01;;;;;;;9.07;2.13;;;;;;;1.51;100.00;100330.16;5034888;28;20057;-85
2023/03/15 01:17:28;;;;;;;9.02;1.90;;;;;;;1.14;100.00;100302.03;5029401;28;20045;-85
2023/03/15 01:19:54;;;;;;;7.68;2.00;;;;;;;1.00;100.00;100296.94;5053425;28;20054;-85
2023/03/15 01:22:21;;;;;;;5.82;1.70;;;;;;;0.86;100.00;100291.84;5032241;28;20747;-83
2023/03/15 01:24:48;;;;;;;7.45;1.77;;;;;;;0.85;100.00;100299.56;5023273;28;20076;-83
2023/03/15 01:27:15;;;;;;;6.63;1.70;;;;;;;0.64;100.00;100295.38;5050422;28;20106;-83
2023/03/15 01:29:41;;;;;;;8.65;2.22;;;;;;;0.75;100.00;100327.97;5039621;28;20040;-85
2023/03/15 01:32:08;;;;;;;5.32;1.75;;;;;;;0.67;100.00;100316.84;5034983;28;20080;-85
2023/03/15 01:34:35;;;;;;;8.30;1.88;;;;;;;0.26;100.00;100265.47;5035713;28;20049;-85
2023/03/15 01:37:03;;;;;;;9.40;2.70;;;;;;;0.63;100.00;100316.88;5052208;28;20052;-85
2023/03/15 01:39:30;;;;;;;4.70;1.50;;;;;;;0.47;100.00;100304.03;5053478;28;20048;-86
2023/03/15 01:41:57;;;;;;;11.80;1.90;;;;;;;0.67;100.00;100337.44;5024648;28;20064;-85
2023/03/15 01:44:48;;;;;;;6.97;1.60;;;;;;;0.64;100.00;100328.88;5030143;28;20056;-85
2023/03/15 01:47:15;;;;;;;7.00;2.15;;;;;;;0.68;100.00;100339.16;5034375;28;20102;-85
2023/03/15 01:49:43;;;;;;;6.93;2.20;;;;;;;0.36;100.00;100293.75;5020800;28;20049;-84
2023/03/15 01:52:22;;;;;;;9.77;2.88;;;;;;;0.37;100.00;100300.63;5034146;28;20049;-85
2023/03/15 01:55:00;;;;;;;7.47;1.60;;;;;;;0.44;100.00;100310.91;5031112;28;20053;-84
2023/03/15 01:57:40;;;;;;;6.53;2.28;;;;;;;0.37;100.00;100295.50;5051309;28;20052;-84
2023/03/15 02:00:11;;;;;;;9.70;2.10;;;;;;;0.38;100.00;100316.94;5020615;28;20045;-84
2023/03/15 02:02:51;;;;;;;7.65;2.53;;;;;;;0.18;100.00;100288.66;5022496;28;20482;-84
2023/03/15 02:05:44;;;;;;;8.30;2.13;;;;;;;0.32;100.00;100319.50;5029089;28;20093;-84
2023/03/15 02:08:15;;;;;;;6.82;1.65;;;;;;;0.51;100.00;100328.06;5030431;28;20049;-84
2023/03/15 02:10:43;;;;;;;11.45;2.53;;;;;;;0.41;100.00;100328.94;5048167;28;20049;-84
2023/03/15 02:13:14;;;;;;;6.95;1.88;;;;;;;0.41;100.00;100329.81;5034204;28;20056;-85
2023/03/15 02:15:45;;;;;;;10.18;2.50;;;;;;;0.25;100.00;100310.09;5045498;28;20474;-85
2023/03/15 02:18:13;;;;;;;8.02;1.92;;;;;;;-0.03;100.00;100274.13;5034688;28;20056;-84
2023/03/15 02:20:46;;;;;;;6.70;1.80;;;;;;;0.08;100.00;100266.38;5024181;28;20506;-85
2023/03/15 02:23:15;;;;;;;10.45;2.13;;;;;;;0.38;100.00;100296.34;5021752;28;20057;-84
2023/03/15 02:25:45;;;;;;;12.48;2.00;;;;;;;0.43;100.00;100317.78;5052052;28;20057;-84
2023/03/15 02:28:14;;;;;;;11.80;2.45;;;;;;;0.10;100.00;100262.06;5034613;28;20053;-84
2023/03/15 02:30:42;;;;;;;7.78;1.83;;;;;;;0.25;100.00;100289.50;5050922;28;20095;-84
2023/03/15 02:33:16;;;;;;;9.90;1.92;;;;;;;0.30;100.00;100282.59;5034783;28;20122;-84
2023/03/15 02:35:43;;;;;;;9.10;2.17;;;;;;;0.38;100.00;100304.06;5051237;28;20053;-85
2023/03/15 02:38:10;;;;;;;8.35;2.47;;;;;;;0.45;100.00;100310.06;5020814;28;20068;-84
2023/03/15 02:40:36;;;;;;;7.88;1.70;;;;;;;0.02;100.00;100235.47;5050315;28;20495;-84
2023/03/15 02:43:07;;;;;;;5.25;1.73;;;;;;;0.32;100.00;100280.88;5033079;28;20075;-84
2023/03/15 02:45:36;;;;;;;5.80;1.80;;;;;;;0.30;100.00;100275.75;5033095;28;20406;-85
2023/03/15 02:48:05;;;;;;;8.10;2.10;;;;;;;0.09;100.00;100268.94;5033971;28;20128;-85
2023/03/15 02:50:32;;;;;;;10.82;2.40;;;;;;;0.14;100.00;100308.41;5034057;28;20057;-85
2023/03/15 02:52:58;;;;;;;5.43;1.88;;;;;;;0.12;100.00;100286.94;5034020;28;20045;-85
2023/03/15 02:55:25;;;;;;;8.05;1.88;;;;;;;0.32;100.00;100320.41;5034800;28;20114;-85
2023/03/15 02:57:52;;;;;;;10.52;1.92;;;;;;;0.00;100.00;100271.56;5033625;28;20044;-85
2023/03/15 03:00:19;;;;;;;7.57;1.85;;;;;;;0.03;100.00;100270.66;5034343;28;20429;-85
2023/03/15 03:02:47;;;;;;;4.72;2.33;;;;;;;0.40;100.00;100315.22;5033320;28;20045;-85
2023/03/15 03:05:15;;;;;;;15.82;3.78;;;;;;;0.06;100.00;100257.81;5014535;28;20056;-85
2023/03/15 03:07:43;;;;;;;6.55;2.35;;;;;;;0.43;100.00;100301.50;5042766;28;20053;-85
2023/03/15 03:10:14;;;;;;;6.97;2.20;;;;;;;-0.01;100.00;100233.78;5020386;28;20052;-85
2023/03/15 03:12:41;;;;;;;21.20;2.90;;;;;;;0.24;100.00;100269.78;5026570;28;20375;-85
2023/03/15 03:15:09;;;;;;;7.88;2.15;;;;;;;0.16;100.00;100252.63;5031012;28;20056;-85
2023/03/15 03:17:37;;;;;;;9.38;1.83;;;;;;;0.41;100.00;100277.44;5030607;28;20049;-84
2023/03/15 03:20:09;;;;;;;10.88;2.28;;;;;;;0.44;100.00;100287.72;5051562;28;20059;-84
2023/03/15 03:22:36;;;;;;;7.10;1.73;;;;;;;0.25;100.00;100251.75;5030967;28;20048;-83
2023/03/15 03:25:05;;;;;;;10.43;2.85;;;;;;;0.40;100.00;100284.31;5033056;28;20170;-83
2023/03/15 03:27:35;;;;;;;8.82;2.00;;;;;;;0.54;100.00;100294.56;5033477;28;20056;-84
2023/03/15 03:30:07;;;;;;;9.25;1.70;;;;;;;0.48;100.00;100266.22;5050898;28;20067;-84
2023/03/15 03:32:34;;;;;;;6.27;2.07;;;;;;;0.31;100.00;100256.84;5035889;28;20053;-84
2023/03/15 03:35:01;;;;;;;6.70;1.92;;;;;;;0.34;100.00;100250.84;5037695;28;20053;-84
2023/03/15 03:37:29;;;;;;;7.70;1.80;;;;;;;0.31;100.00;100245.72;5055370;28;20122;-84
2023/03/15 03:39:57;;;;;;;9.48;2.03;;;;;;;0.34;100.00;100236.25;5036506;28;20594;-83
2023/03/15 03:42:24;;;;;;;8.63;2.20;;;;;;;0.52;100.00;100261.06;5050158;28;20471;-84
2023/03/15 03:44:53;;;;;;;8.07;2.28;;;;;;;0.53;100.00;100278.25;5036383;28;20049;-85
2023/03/15 03:47:20;;;;;;;9.73;2.40;;;;;;;0.36;100.00;100247.41;5053312;28;20049;-85
2023/03/15 03:49:47;;;;;;;7.70;1.92;;;;;;;0.41;100.00;100249.09;5054933;28;20836;-85
2023/03/15 03:52:13;;;;;;;8.23;1.98;;;;;;;0.45;100.00;100269.69;5035593;28;20049;-85
2023/03/15 03:54:41;;;;;;;9.43;2.03;;;;;;;0.28;100.00;100243.97;5052659;28;20114;-84
2023/03/15 03:57:09;;;;;;;12.98;2.25;;;;;;;0.44;100.00;100269.69;5054864;28;20087;-84
2023/03/15 03:59:36;;;;;;;12.77;2.10;;;;;;;-0.07;100.00;100198.63;5036676;28;20080;-84
2023/03/15 04:02:03;;;;;;;7.63;2.10;;;;;;;0.26;100.00;100261.16;5036004;28;20053;-84
2023/03/15 04:04:30;;;;;;;9.95;2.00;;;;;;;0.24;100.00;100254.31;5023105;28;20073;-84
2023/03/15 04:06:57;;;;;;;6.22;1.90;;;;;;;0.20;100.00;100248.31;5053503;28;20478;-84
2023/03/15 04:09:23;;;;;;;7.10;1.70;;;;;;;0.32;100.00;100288.59;5029334;28;20046;-84
2023/03/15 04:11:50;;;;;;;7.28;1.70;;;;;;;0.10;100.00;100250.06;5018815;28;20118;-84
2023/03/15 04:14:17;;;;;;;4.55;1.42;;;;;;;0.37;100.00;100292.91;5017732;28;20084;-84
2023/03/15 04:16:44;;;;;;;6.22;1.77;;;;;;;0.14;100.00;100269.81;5045891;28;20057;-84
2023/03/15 04:19:11;;;;;;;8.50;2.25;;;;;;;0.17;100.00;100264.63;5027027;28;20057;-84
2023/03/15 04:21:38;;;;;;;3.78;1.40;;;;;;;0.02;100.00;100232.91;5027220;28;20045;-84
2023/03/15 04:24:06;;;;;;;7.35;1.77;;;;;;;0.12;100.00;100265.50;5053852;28;20075;-83
2023/03/15 04:26:33;;;;;;;5.60;1.85;;;;;;;0.03;100.00;100243.22;5036125;28;20137;-83
2023/03/15 04:29:00;;;;;;;8.88;1.83;;;;;;;0.36;100.00;100290.34;5045400;28;20049;-84
2023/03/15 04:31:27;;;;;;;11.52;2.42;;;;;;;0.24;100.00;100286.06;5023201;28;20048;-84
2023/03/15 04:33:54;;;;;;;8.77;2.15;;;;;;;0.06;100.00;100257.81;5022712;28;20057;-84
2023/03/15 04:36:22;;;;;;;8.30;1.92;;;;;;;-0.17;100.00;100243.25;5030560;28;20053;-84
2023/03/15 04:38:49;;;;;;;9.20;1.70;;;;;;;0.27;100.00;100293.78;5025568;28;20100;-84
2023/03/15 04:41:17;;;;;;;9.68;2.15;;;;;;;0.20;100.00;100294.66;5028432;28;20483;-84
2023/03/15 04:43:44;;;;;;;5.78;1.70;;;;;;;0.34;100.00;100303.22;5035868;28;20114;-84
2023/03/15 04:46:11;;;;;;;4.32;1.70;;;;;;;0.18;100.00;100289.53;5036351;28;20045;-84
2023/03/15 04:48:37;;;;;;;7.65;1.88;;;;;;;0.08;100.00;100268.94;5036193;28;20487;-84
2023/03/15 04:51:04;;;;;;;6.30;1.80;;;;;;;-0.07;100.00;100252.69;5034918;28;20048;-84
2023/03/15 04:53:31;;;;;;;5.78;1.60;;;;;;;0.22;100.00;100299.81;5039382;28;20468;-83
2023/03/15 04:55:58;;;;;;;12.52;1.98;;;;;;;0.25;100.00;100315.25;5036172;28;20053;-84
2023/03/15 04:58:25;;;;;;;9.98;4.05;;;;;;;0.20;100.00;100301.53;5035705;28;20494;-83
2023/03/15 05:00:52;;;;;;;5.80;1.40;;;;;;;0.29;100.00;100296.38;5032182;28;20052;-84
2023/03/15 05:03:20;;;;;;;10.57;1.85;;;;;;;0.15;100.00;100289.50;5030053;28;20506;-84
2023/03/15 05:05:46;;;;;;;4.28;1.40;;;;;;;-0.13;100.00;100247.53;5031197;28;20057;-84
2023/03/15 05:08:13;;;;;;;9.18;1.65;;;;;;;0.23;100.00;100306.66;5053769;28;20503;-84
2023/03/15 05:10:40;;;;;;;6.07;1.98;;;;;;;0.07;100.00;100278.41;5030638;28;20045;-84
2023/03/15 05:13:07;;;;;;;7.03;2.50;;;;;;;0.17;100.00;100300.66;5023778;28;20471;-84
2023/03/15 05:15:33;;;;;;;7.85;2.17;;;;;;;0.04;100.00;100267.25;5020353;28;20049;-84
2023/03/15 05:18:00;;;;;;;7.57;2.15;;;;;;;0.30;100.00;100301.53;5043158;28;20577;-84
2023/03/15 05:20:27;;;;;;;3.90;1.50;;;;;;;0.03;100.00;100270.66;5034726;28;20103;-84
2023/03/15 05:22:54;;;;;;;11.68;2.97;;;;;;;0.32;100.00;100312.66;5024451;28;20057;-83
2023/03/15 05:25:20;;;;;;;4.80;1.60;;;;;;;0.00;100.00;100276.69;5043265;28;20041;-83
2023/03/15 05:27:47;;;;;;;7.20;1.90;;;;;;;0.40;100.00;100322.09;5024956;28;20056;-83
2023/03/15 05:30:15;;;;;;;5.03;1.55;;;;;;;0.46;100.00;100315.22;5034455;28;20049;-83
2023/03/15 05:32:43;;;;;;;5.22;1.52;;;;;;;0.30;100.00;100288.63;5020957;28;20057;-82
2023/03/15 05:35:11;;;;;;;7.32;1.75;;;;;;;0.37;100.00;100300.63;5031888;28;20403;-82
2023/03/15 05:37:38;;;;;;;4.40;1.48;;;;;;;0.49;100.00;100315.19;5019130;28;20085;-82
2023/03/15 05:40:09;;;;;;;4.53;1.63;;;;;;;0.15;100.00;100265.50;5035435;28;20045;-82
2023/03/15 05:42:36;;;;;;;4.75;1.50;;;;;;;0.20;100.00;100286.09;5051610;28;20052;-83
2023/03/15 05:45:03;;;;;;;2.90;1.45;;;;;;;0.35;100.00;100319.50;5035098;28;20053;-83
2023/03/15 05:47:30;;;;;;;13.25;2.00;;;;;;;-0.05;100.00;100283.56;5021660;28;20049;-83
2023/03/15 05:49:59;;;;;;;8.77;2.17;;;;;;;-0.31;100.00;100242.41;5035612;28;20368;-82
2023/03/15 05:52:26;;;;;;;5.43;1.80;;;;;;;0.32;100.00;100327.25;5038648;28;20053;-83
2023/03/15 05:54:53;;;;;;;7.03;1.90;;;;;;;0.33;100.00;100331.53;5033717;28;20053;-82
2023/03/15 05:57:19;;;;;;;8.88;1.75;;;;;;;0.17;100.00;100326.41;5023946;28;20054;-83
2023/03/15 05:59:46;;;;;;;4.68;1.40;;;;;;;0.05;100.00;100328.16;5032537;28;20052;-83
2023/03/15 06:02:13;;;;;;;10.88;2.35;;;;;;;-0.23;100.00;100323.00;5033911;28;20056;-84
2023/03/15 06:04:40;;;;;;;8.88;2.17;;;;;;;-0.17;100.00;100356.47;5019977;28;20087;-84
2023/03/15 06:07:07;;;;;;;7.97;1.83;;;;;;;-0.09;100.00;100352.19;5026598;28;20053;-84
2023/03/15 06:09:34;;;;;;;9.00;2.33;;;;;;;-0.37;100.00;100330.75;5028985;28;20049;-84
2023/03/15 06:12:00;;;;;;;17.38;3.58;;;;;;;-0.46;100.00;100341.00;5014407;28;20045;-84
2023/03/15 06:14:27;;;;;;;12.50;1.75;;;;;;;-0.29;100.00;100359.03;5032173;28;20049;-85
2023/03/15 06:16:54;;;;;;;6.18;1.73;;;;;;;-0.48;100.00;100317.88;5050746;28;20464;-85
2023/03/15 06:19:21;;;;;;;6.22;2.17;;;;;;;-0.51;100.00;100330.72;5051267;28;20087;-84
2023/03/15 06:21:48;;;;;;;5.25;1.77;;;;;;;-0.01;100.00;100393.38;5033385;28;20056;-83
2023/03/15 06:24:15;;;;;;;6.57;1.85;;;;;;;-0.46;100.00;100326.44;5034496;28;20083;-83
2023/03/15 06:26:42;;;;;;;7.50;1.88;;;;;;;-0.10;100.00;100370.22;5051614;28;20052;-84
2023/03/15 06:29:09;;;;;;;10.05;2.20;;;;;;;-0.17;100.00;100356.47;5020343;28;20426;-84
2023/03/15 06:31:36;;;;;;;10.43;3.42;;;;;;;0.01;100.00;100376.22;5051377;28;20041;-84
2023/03/15 06:34:02;;;;;;;5.85;1.65;;;;;;;0.05;100.00;100367.63;5033912;28;20048;-83
2023/03/15 06:36:30;;;;;;;5.28;1.50;;;;;;;0.28;100.00;100388.19;5029658;28;20045;-84
2023/03/15 06:38:57;;;;;;;5.78;2.13;;;;;;;0.20;100.00;100374.50;5046524;28;20063;-83
2023/03/15 06:41:23;;;;;;;6.53;1.67;;;;;;;0.31;100.00;100382.19;5051026;28;20045;-84
2023/03/15 06:43:50;;;;;;;4.00;1.33;;;;;;;0.34;100.00;100388.22;5032987;28;20606;-84
2023/03/15 06:46:17;;;;;;;8.05;1.70;;;;;;;0.29;100.00;100371.91;5036921;28;20491;-84
2023/03/15 06:48:44;;;;;;;6.10;1.55;;;;;;;0.28;100.00;100374.47;5032942;28;20144;-84
2023/03/15 06:51:10;;;;;;;8.23;1.65;;;;;;;0.19;100.00;100362.47;5018825;28;20056;-86
2023/03/15 06:53:37;;;;;;;2.97;1.30;;;;;;;0.06;100.00;100343.59;5024732;28;20122;-86
2023/03/15 06:56:04;;;;;;;5.90;1.60;;;;;;;0.17;100.00;100365.03;5030105;28;20056;-84
2023/03/15 06:58:31;;;;;;;5.15;1.70;;;;;;;0.18;100.00;100381.38;5033082;28;20045;-84
2023/03/15 07:00:58;;;;;;;3.80;1.30;;;;;;;-0.11;100.00;100345.31;5046583;28;20111;-84
2023/03/15 07:03:24;;;;;;;4.68;1.50;;;;;;;-0.26;100.00;100326.44;5049729;28;20098;-85
2023/03/15 07:05:53;;;;;;;5.80;1.63;;;;;;;0.13;100.00;100395.94;5051979;28;20053;-85
2023/03/15 07:08:21;;;;;;;9.27;2.10;;;;;;;0.13;100.00;100404.53;5038370;28;20111;-86
2023/03/15 07:10:49;;;;;;;5.78;1.92;;;;;;;-0.08;100.00;100361.63;5036507;28;20045;-86
2023/03/15 07:13:17;;;;;;;4.50;2.35;;;;;;;0.05;100.00;100366.75;5037665;28;20045;-85
2023/03/15 07:15:46;;;;;;;6.80;1.90;;;;;;;-0.05;100.00;100355.63;5037830;28;20656;-85
2023/03/15 07:18:13;;;;;;;7.00;1.60;;;;;;;-0.22;100.00;100309.31;5055429;28;20061;-86
2023/03/15 07:20:39;;;;;;;10.85;2.58;;;;;;;0.03;100.00;100355.63;5053143;28;20384;-85
2023/03/15 07:23:06;;;;;;;4.55;1.70;;;;;;;-0.08;100.00;100351.31;5053477;28;20114;-85
2023/03/15 07:25:33;;;;;;;4.03;1.63;;;;;;;0.18;100.00;100379.63;5033824;28;20515;-86
2023/03/15 07:28:17;;;;;;;4.68;1.88;;;;;;;0.51;100.00;100406.22;5036561;28;20045;-86
2023/03/15 07:31:01;;;;;;;4.28;1.30;;;;;;;1.08;100.00;100393.16;5053698;28;20056;-85
2023/03/15 07:33:30;;;;;;;11.70;2.25;;;;;;;1.66;100.00;100397.13;5034643;28;20075;-86
2023/03/15 07:35:57;;;;;;;5.88;1.50;;;;;;;1.98;100.00;100340.97;5036691;28;20429;-85
2023/03/15 07:38:27;;;;;;;6.22;1.80;;;;;;;2.91;100.00;100410.69;5055274;28;20128;-85
2023/03/15 07:40:55;;;;;;;5.00;1.30;;;;;;;3.60;100.00;100407.22;5048384;28;20398;-86
2023/03/15 07:43:22;;;;;;;7.25;2.05;;;;;;;4.07;100.00;100392.72;5030507;28;20049;-86
2023/03/15 07:45:49;;;;;;;6.20;1.80;;;;;;;4.52;100.00;100395.38;5050197;28;20053;-86
2023/03/15 07:48:16;;;;;;;3.70;1.45;;;;;;;4.70;100.00;100404.56;5037503;28;20049;-85
2023/03/15 07:50:44;;;;;;;5.45;1.60;;;;;;;3.59;100.00;100403.78;5034151;28;20060;-86
2023/03/15 07:53:11;;;;;;;5.97;1.60;;;;;;;2.96;100.00;100411.50;5054786;28;20356;-86
2023/03/15 07:55:38;;;;;;;5.28;1.42;;;;;;;2.83;100.00;100434.03;5036931;28;20398;-85
2023/03/15 07:58:05;;;;;;;6.20;1.70;;;;;;;2.55;100.00;100433.47;5034435;28;20060;-86
2023/03/15 08:00:32;;;;;;;4.95;1.60;;;;;;;3.41;100.00;100423.00;5035641;28;20045;-85
2023/03/15 08:02:59;;;;;;;4.22;1.50;;;;;;;4.03;100.00;100414.34;5035812;28;20144;-86
2023/03/15 08:05:26;;;;;;;10.98;1.70;;;;;;;4.45;100.00;100367.00;5036224;28;20057;-84
2023/03/15 08:07:55;;;;;;;7.88;3.50;;;;;;;4.72;98.86;100378.59;5053906;28;20045;-85
2023/03/15 08:10:22;;;;;;;6.93;2.08;;;;;;;4.77;100.00;100373.31;5036466;28;20045;-85
2023/03/15 08:12:49;;;;;;;8.00;2.05;;;;;;;5.00;100.00;100363.34;5050804;28;20057;-85
2023/03/15 08:15:17;;;;;;;16.83;2.10;;;;;;;4.77;100.00;100343.03;5025907;28;20049;-86
2023/03/15 08:17:46;;;;;;;5.95;1.65;;;;;;;5.46;93.74;100392.66;5036430;28;20075;-85
2023/03/15 08:20:16;;;;;;;3.42;1.27;;;;;;;5.81;92.06;100378.03;5036658;28;20048;-86
2023/03/15 08:22:47;;;;;;;7.38;1.58;;;;;;;5.81;88.27;100414.41;5053410;28;20063;-85
2023/03/15 08:25:17;;;;;;;7.80;1.83;;;;;;;5.87;91.00;100383.91;5033947;28;20060;-85
2023/03/15 08:27:44;;;;;;;7.60;1.75;;;;;;;5.98;86.48;100377.63;5049067;28;20049;-86
2023/03/15 08:30:13;;;;;;;8.15;1.85;;;;;;;6.43;90.39;100419.84;5046172;28;20064;-86
2023/03/15 08:32:41;;;;;;;7.00;1.60;;;;;;;6.35;83.22;100406.16;5052685;28;20045;-86
2023/03/15 08:35:11;;;;;;;8.40;2.65;;;;;;;6.30;81.12;100413.22;5053652;28;20081;-86
2023/03/15 08:37:45;;;;;;;11.02;2.25;;;;;;;6.41;80.64;100394.75;5047748;28;20467;-85
2023/03/15 08:40:15;;;;;;;7.55;2.28;;;;;;;6.45;78.52;100393.78;5035685;28;20060;-86
2023/03/15 08:42:41;;;;;;;15.02;3.60;;;;;;;6.12;77.52;100346.94;5022305;28;20410;-86
2023/03/15 08:45:09;;;;;;;9.77;2.75;;;;;;;6.57;75.98;100375.25;5049423;28;20059;-85
2023/03/15 08:47:36;;;;;;;13.27;3.72;;;;;;;6.87;75.64;100400.47;5036662;28;20778;-85
2023/03/15 08:50:05;;;;;;;7.78;2.63;;;;;;;6.95;75.50;100404.56;5032447;28;20506;-85
2023/03/15 08:52:32;;;;;;;10.13;2.80;;;;;;;7.18;77.41;100397.88;5029480;28;20052;-85
2023/03/15 08:54:59;;;;;;;9.68;2.58;;;;;;;6.88;75.11;100384.81;5053044;28;20045;-84
2023/03/15 08:57:27;;;;;;;6.05;1.60;;;;;;;6.95;74.59;100416.75;5032221;28;20060;-86
2023/03/15 08:59:55;;;;;;;7.30;2.00;;;;;;;6.74;75.28;100361.78;5035843;28;20106;-85
2023/03/15 09:02:22;;;;;;;7.72;1.73;;;;;;;6.56;73.52;100380.50;5048724;28;20046;-86
2023/03/15 09:04:49;;;;;;;6.50;1.70;;;;;;;6.74;74.63;100410.38;5039357;28;20186;-85
2023/03/15 09:07:20;;;;;;;8.30;1.90;;;;;;;6.26;72.88;100375.19;5037023;28;20052;-86
2023/03/15 09:09:47;;;;;;;5.05;1.50;;;;;;;6.42;73.00;100405.09;5035579;28;20536;-86
2023/03/15 09:12:17;;;;;;;6.50;1.55;;;;;;;6.55;75.76;100412.59;5052685;28;20483;-86
2023/03/15 09:14:44;;;;;;;10.35;5.07;;;;;;;6.13;74.58;100376.41;5039104;28;20441;-87
2023/03/15 09:17:11;;;;;;;6.25;2.47;;;;;;;5.87;73.25;100342.34;5041248;28;20052;-86
2023/03/15 09:19:38;;;;;;;8.48;1.95;;;;;;;5.78;73.55;100346.91;5031497;28;20041;-87
2023/03/15 09:22:06;;;;;;;8.30;2.00;;;;;;;6.14;73.33;100411.91;5050918;28;20668;-86
2023/03/15 09:24:49;;;;;;;5.72;1.63;;;;;;;6.07;74.29;100419.88;5036716;28;20140;-86
2023/03/15 09:27:18;;;;;;;14.57;2.47;;;;;;;5.54;74.14;100415.84;5033246;28;20463;-87
2023/03/15 09:29:44;;;;;;;6.22;1.77;;;;;;;5.74;76.58;100420.59;5022536;28;20071;-87
2023/03/15 09:32:12;;;;;;;8.55;1.98;;;;;;;5.23;74.38;100395.75;5014591;28;20080;-86
2023/03/15 09:34:39;;;;;;;11.70;1.80;;;;;;;5.53;75.13;100437.53;5039666;28;20045;-87
2023/03/15 09:37:08;;;;;;;3.38;1.33;;;;;;;5.34;75.50;100393.78;5022938;28;20045;-86
2023/03/15 09:39:35;;;;;;;6.47;1.83;;;;;;;5.53;76.82;100399.44;5052767;28;20474;-87
2023/03/15 09:42:07;;;;;;;7.93;2.00;;;;;;;5.48;76.60;100406.47;5022163;28;20061;-86
2023/03/15 09:44:39;;;;;;;10.25;3.47;;;;;;;5.18;76.00;100388.03;5020183;28;20383;-86
2023/03/15 09:47:19;;;;;;;5.30;1.50;;;;;;;5.39;77.94;100391.09;5031735;28;20067;-87
2023/03/15 09:50:08;;;;;;;7.47;1.73;;;;;;;5.38;78.84;100389.38;5030227;28;20048;-87
2023/03/15 09:52:47;;;;;;;9.15;1.63;;;;;;;5.61;78.63;100423.50;5032105;28;20049;-87
2023/03/15 09:55:27;;;;;;;7.63;1.98;;;;;;;5.57;79.35;100415.78;5015767;28;20061;-86
2023/03/15 09:58:11;;;;;;;5.10;1.63;;;;;;;5.77;79.87;100443.91;5015696;28;20132;-86
2023/03/15 10:00:51;;;;;;;6.45;1.80;;;;;;;5.62;79.56;100430.38;5024731;28;20467;-87
2023/03/15 10:03:48;;;;;;;9.50;1.95;;;;;;;5.95;80.69;100451.31;5034534;28;20049;-87
2023/03/15 10:06:19;;;;;;;7.53;2.05;;;;;;;5.96;79.03;100452.19;5043805;28;20053;-87
2023/03/15 10:08:46;;;;;;;8.77;2.22;;;;;;;5.90;78.34;100453.16;5027751;28;20498;-87
2023/03/15 10:11:31;;;;;;;7.95;3.45;;;;;;;5.99;78.58;100458.16;5037786;28;20040;-87
2023/03/15 10:14:07;;;;;;;8.40;1.92;;;;;;;5.88;78.82;100457.53;5033631;28;20060;-87
2023/03/15 10:16:39;;;;;;;5.57;1.58;;;;;;;6.11;79.69;100457.03;5034854;28;20064;-87
2023/03/15 10:19:12;;;;;;;6.82;1.77;;;;;;;6.06;78.17;100464.94;5044532;28;20423;-87
2023/03/15 10:21:47;;;;;;;;;;;;;;;6.13;77.19;100465.66;5027540;28;20041;-87
2023/03/15 10:24:41;;;;;;;9.02;2.25;;;;;;;5.75;76.87;100424.91;5034880;28;19927;-86
2023/03/15 10:27:23;;;;;;;8.57;1.77;;;;;;;6.17;77.81;100456.03;5020691;28;20049;-87
2023/03/15 10:29:53;;;;;;;7.13;1.70;;;;;;;5.93;76.63;100428.81;5034411;28;20045;-86
2023/03/15 10:32:25;;;;;;;4.38;1.58;;;;;;;6.01;75.32;100453.78;5019061;28;20056;-87
2023/03/15 10:34:55;;;;;;;6.35;1.60;;;;;;;6.14;77.81;100394.56;5051756;28;20136;-87
2023/03/15 10:37:24;;;;;;;4.75;1.45;;;;;;;6.49;76.40;100442.22;5051434;28;20045;-87
2023/03/15 10:39:57;;;;;;;6.95;2.00;;;;;;;6.19;75.62;100373.66;5034671;28;20056;-87
2023/03/15 10:42:32;;;;;;;5.50;1.58;;;;;;;6.61;76.19;100407.25;5017833;28;20045;-87
2023/03/15 10:45:21;;;;;;;7.55;2.15;;;;;;;6.46;75.52;100427.56;5051638;28;20388;-86
2023/03/15 10:47:49;;;;;;;9.40;2.33;;;;;;;6.46;75.18;100427.56;5033904;28;20053;-87
2023/03/15 10:50:26;;;;;;;8.80;2.42;;;;;;;6.54;74.38;100445.56;5036342;28;20128;-86
2023/03/15 10:52:55;;;;;;;4.88;1.50;;;;;;;6.56;74.69;100419.53;5034377;28;20080;-87
2023/03/15 10:55:35;;;;;;;5.88;1.85;;;;;;;6.84;75.33;100419.63;5043447;28;20057;-87
2023/03/15 10:58:26;;;;;;;6.35;1.60;;;;;;;7.07;75.83;100424.22;5018098;28;20052;-87
2023/03/15 11:01:22;;;;;;;6.38;2.10;;;;;;;7.09;72.76;100430.22;5023510;28;20060;-86
2023/03/15 11:04:13;;;;;;;5.38;1.48;;;;;;;7.20;71.05;100422.09;5036328;28;20060;-86
2023/03/15 11:06:57;;;;;;;8.13;1.70;;;;;;;7.09;68.18;100424.16;5015640;28;20049;-85
2023/03/15 11:09:26;;;;;;;5.10;1.50;;;;;;;7.41;69.32;100398.03;5014144;28;20052;-87
2023/03/15 11:12:01;;;;;;;4.32;1.35;;;;;;;7.68;64.98;100408.50;5031309;28;20096;-87
2023/03/15 11:14:49;;;;;;;4.47;1.35;;;;;;;8.20;65.65;100416.44;5034360;28;20057;-87
2023/03/15 11:17:22;;;;;;;7.20;1.70;;;;;;;8.26;64.98;100400.59;5051089;28;20497;-87
2023/03/15 11:19:56;;;;;;;2.50;1.13;;;;;;;8.17;62.42;100427.81;5033718;28;20053;-87
2023/03/15 11:22:22;;;;;;;;;;;;;;;8.31;63.86;100418.69;5042937;28;20045;-87
2023/03/15 11:24:51;;;;;;;5.38;1.45;;;;;;;8.22;62.32;100422.47;5031139;28;19920;-87
2023/03/15 11:27:21;;;;;;;14.18;1.95;;;;;;;7.74;62.38;100428.34;5020135;28;20049;-87
2023/03/15 11:30:00;;;;;;;6.72;1.60;;;;;;;7.39;62.21;100401.59;5033861;28;20048;-87
2023/03/15 11:32:30;;;;;;;6.97;1.60;;;;;;;7.51;63.15;100416.84;5018879;28;20407;-87
2023/03/15 11:35:14;;;;;;;6.95;1.60;;;;;;;7.30;63.36;100410.53;5034053;28;20059;-87
2023/03/15 11:38:00;;;;;;;9.82;2.35;;;;;;;7.05;63.09;100386.97;5031031;28;20049;-88